Time;durP1;ratioP1;P1;durP2;ratioP2;P2;SDS_P1;SDS_P2;PMS_P1;PMS_P2;Temp;Humidity;BMP_temperature;BMP_pressure;BME280_temperature;BME280_humidity;BME280_pressure;Samples;Min_cycle;Max_cycle;Signal;HPM_P1;HPM_P2
2022/01/13 00:01:20;;;;;;;28.83;12.73;;;6.30;99.90;;;;;;5100147;27;20057;-73
2022/01/13 00:03:47;;;;;;;31.83;12.55;;;6.10;99.90;;;;;;5118097;27;20518;-77
2022/01/13 00:06:12;;;;;;;26.33;11.88;;;6.10;99.90;;;;;;5101086;27;20122;-76
2022/01/13 00:08:38;;;;;;;29.70;12.45;;;6.20;99.90;;;;;;5100932;27;20126;-77
2022/01/13 00:11:04;;;;;;;28.80;10.88;;;6.40;99.90;;;;;;5117630;27;20090;-74
2022/01/13 00:13:44;;;;;;;27.02;11.52;;;6.40;99.90;;;;;;5117827;27;20051;-78
2022/01/13 00:19:03;;;;;;;27.45;11.63;;;6.20;99.90;;;;;;5136641;27;20086;-78
2022/01/13 00:21:35;;;;;;;29.50;11.70;;;6.50;99.90;;;;;;5100691;27;20475;-77
2022/01/13 00:24:03;;;;;;;29.73;11.63;;;6.40;99.90;;;;;;5117974;27;20138;-77
2022/01/13 00:26:31;;;;;;;28.83;11.75;;;5.90;99.90;;;;;;5100949;27;20126;-75
2022/01/13 00:29:00;;;;;;;33.72;12.30;;;6.40;99.90;;;;;;5100655;27;20043;-74
2022/01/13 00:31:29;;;;;;;32.58;11.85;;;6.00;99.90;;;;;;5117529;27;20558;-75
2022/01/13 00:33:57;;;;;;;26.02;11.43;;;6.20;99.90;;;;;;5100933;27;20050;-75
2022/01/13 00:36:24;;;;;;;33.90;11.85;;;6.10;99.90;;;;;;5136435;27;20071;-76
2022/01/13 00:38:51;;;;;;;33.17;11.10;;;6.00;99.90;;;;;;5117206;27;20130;-74
2022/01/13 00:41:17;;;;;;;30.30;12.52;;;6.30;99.90;;;;;;5117133;27;20047;-76
2022/01/13 00:43:46;;;;;;;26.85;11.40;;;6.40;99.90;;;;;;5100258;27;20054;-76
2022/01/13 00:46:19;;;;;;;28.70;11.27;;;6.10;99.90;;;;;;5100925;27;20043;-75
2022/01/13 00:48:45;;;;;;;30.40;10.82;;;6.00;99.90;;;;;;5100580;27;20138;-75
2022/01/13 00:51:11;;;;;;;34.20;12.27;;;6.20;99.90;;;;;;5116905;27;20130;-77
2022/01/13 00:53:36;;;;;;;30.15;12.35;;;6.00;99.90;;;;;;5117864;27;20086;-74
2022/01/13 00:56:02;;;;;;;34.97;12.15;;;6.10;99.90;;;;;;5135178;27;20489;-77
2022/01/13 00:58:31;;;;;;;40.90;13.38;;;5.90;99.90;;;;;;5117037;27;20127;-75
2022/01/13 01:00:57;;;;;;;38.40;13.25;;;5.90;99.90;;;;;;5134965;27;20043;-76
2022/01/13 01:03:23;;;;;;;32.75;12.02;;;6.10;99.90;;;;;;5135055;27;20051;-76
2022/01/13 01:05:50;;;;;;;33.00;11.07;;;7.00;99.90;;;;;;5116701;27;20047;-75
2022/01/13 01:08:16;;;;;;;37.10;11.55;;;5.90;99.90;;;;;;5134963;27;20047;-75
2022/01/13 01:10:45;;;;;;;35.35;11.65;;;6.10;99.90;;;;;;5112968;28;20059;-77
2022/01/13 01:13:13;;;;;;;34.00;11.95;;;5.80;99.90;;;;;;5112885;28;20062;-76
2022/01/13 01:15:43;;;;;;;40.10;14.63;;;7.00;99.90;;;;;;5113326;28;20082;-76
2022/01/13 01:18:25;;;;;;;34.25;11.77;;;6.30;99.90;;;;;;5096327;28;20054;-76
2022/01/13 01:21:18;;;;;;;37.28;13.68;;;6.20;99.90;;;;;;5081255;28;20036;-77
2022/01/13 01:28:53;;;;;;;38.10;12.65;;;5.90;99.90;;;;;;5112967;28;20105;-75
2022/01/13 01:31:26;;;;;;;31.20;11.55;;;6.20;99.90;;;;;;5113538;28;20071;-77
2022/01/13 01:34:14;;;;;;;36.45;12.65;;;5.90;99.90;;;;;;5113550;28;20080;-76
2022/01/13 01:36:38;;;;;;;33.45;11.30;;;5.90;99.90;;;;;;5113078;28;20390;-77
2022/01/13 01:39:07;;;;;;;32.60;12.35;;;6.00;99.90;;;;;;5113093;28;20122;-78
2022/01/13 01:41:42;;;;;;;35.10;11.18;;;6.50;99.90;;;;;;5113175;28;20092;-77
2022/01/13 01:44:10;;;;;;;32.15;11.48;;;5.80;99.90;;;;;;5113974;28;20120;-77
2022/01/13 01:46:41;;;;;;;32.38;11.25;;;6.20;99.90;;;;;;5113050;28;20043;-76
2022/01/13 01:49:15;;;;;;;38.92;11.77;;;6.10;99.90;;;;;;5113018;28;20044;-77
2022/01/13 01:51:46;;;;;;;26.08;11.15;;;6.00;99.90;;;;;;5097807;28;20057;-77
2022/01/13 01:54:12;;;;;;;37.78;11.88;;;5.90;99.90;;;;;;5096242;28;20140;-76
2022/01/13 01:56:38;;;;;;;27.63;11.27;;;5.90;99.90;;;;;;5113570;28;20047;-75
2022/01/13 01:59:15;;;;;;;29.30;11.77;;;6.10;99.90;;;;;;5112797;28;20055;-76
2022/01/13 02:01:43;;;;;;;31.38;11.75;;;5.80;99.90;;;;;;5113600;28;20488;-76
2022/01/13 02:04:09;;;;;;;24.75;10.35;;;6.20;99.90;;;;;;5112515;28;20051;-76
2022/01/13 02:06:35;;;;;;;30.90;12.98;;;6.50;99.90;;;;;;5095541;28;20499;-76
2022/01/13 02:09:03;;;;;;;28.50;11.18;;;5.80;99.90;;;;;;5112457;28;20487;-76
2022/01/13 02:11:29;;;;;;;34.85;12.60;;;6.10;99.90;;;;;;5112337;28;20156;-76
2022/01/13 02:14:08;;;;;;;29.13;11.90;;;5.90;99.90;;;;;;5112401;28;20090;-76
2022/01/13 02:19:01;;;;;;;25.88;10.90;;;6.00;99.90;;;;;;5113413;28;20105;-78
2022/01/13 02:21:27;;;;;;;30.63;11.65;;;6.10;99.90;;;;;;5112600;28;20556;-76
2022/01/13 02:23:55;;;;;;;33.17;12.55;;;5.80;99.90;;;;;;5113620;28;20092;-77
2022/01/13 02:26:21;;;;;;;34.70;12.73;;;6.30;99.90;;;;;;5117217;28;20378;-76
2022/01/13 02:28:49;;;;;;;35.53;12.88;;;5.90;99.90;;;;;;5117354;28;20077;-76
2022/01/13 02:31:14;;;;;;;31.33;12.38;;;6.00;99.90;;;;;;5117463;28;20094;-74
2022/01/13 02:33:41;;;;;;;35.30;12.73;;;6.20;99.90;;;;;;5099955;28;20048;-77
2022/01/13 02:36:08;;;;;;;32.45;11.82;;;5.80;99.90;;;;;;5116204;28;20047;-75
2022/01/13 02:38:34;;;;;;;28.70;11.50;;;6.30;99.90;;;;;;5082409;28;20086;-77
2022/01/13 02:41:02;;;;;;;32.55;11.32;;;6.40;99.90;;;;;;5098637;28;20047;-77
2022/01/13 02:43:33;;;;;;;30.80;11.02;;;5.70;99.90;;;;;;5117772;28;20048;-77
2022/01/13 02:46:18;;;;;;;36.65;11.50;;;5.80;99.90;;;;;;5115990;28;20496;-77
2022/01/13 02:48:44;;;;;;;35.58;13.02;;;5.50;99.90;;;;;;5116360;28;20040;-77
2022/01/13 02:51:09;;;;;;;30.15;11.38;;;5.70;99.90;;;;;;5115906;28;20044;-77
2022/01/13 02:53:35;;;;;;;31.98;11.82;;;5.60;99.90;;;;;;5115783;28;20070;-77
2022/01/13 02:56:04;;;;;;;29.85;11.60;;;5.90;99.90;;;;;;5082266;28;20082;-75
2022/01/13 02:58:32;;;;;;;33.78;11.98;;;6.10;99.90;;;;;;5116169;28;20130;-75
2022/01/13 03:00:58;;;;;;;26.27;11.50;;;6.40;99.90;;;;;;5116368;28;20040;-77
2022/01/13 03:03:24;;;;;;;36.85;11.68;;;5.90;99.90;;;;;;5116088;28;20472;-76
2022/01/13 03:05:50;;;;;;;28.20;11.50;;;6.40;99.90;;;;;;5115639;28;20044;-77
2022/01/13 03:08:16;;;;;;;35.83;12.02;;;5.80;99.90;;;;;;5115874;28;20036;-75
2022/01/13 03:10:42;;;;;;;30.05;11.57;;;6.50;99.90;;;;;;5098257;28;20056;-75
2022/01/13 03:13:08;;;;;;;30.30;12.38;;;5.80;99.90;;;;;;5116058;28;20043;-76
2022/01/13 03:15:34;;;;;;;28.85;11.98;;;5.70;99.90;;;;;;5098939;28;20479;-77
2022/01/13 03:18:00;;;;;;;30.60;11.45;;;5.70;99.90;;;;;;5117403;28;20079;-75
2022/01/13 03:20:26;;;;;;;30.23;12.27;;;6.00;99.90;;;;;;5117111;28;20456;-77
2022/01/13 03:22:52;;;;;;;32.78;11.80;;;5.80;99.90;;;;;;5115895;28;20402;-76
2022/01/13 03:25:22;;;;;;;30.67;12.00;;;6.00;99.90;;;;;;5098414;28;20105;-76
2022/01/13 03:27:55;;;;;;;36.10;11.52;;;6.40;99.90;;;;;;5115419;28;20439;-75
2022/01/13 03:30:20;;;;;;;30.95;11.85;;;5.70;99.90;;;;;;5115116;28;20047;-78
2022/01/13 03:32:46;;;;;;;34.38;12.55;;;6.80;99.90;;;;;;5098038;28;20115;-77
2022/01/13 03:35:12;;;;;;;36.33;12.93;;;5.70;99.90;;;;;;5114986;28;20044;-75
2022/01/13 03:37:38;;;;;;;29.02;11.40;;;5.60;99.90;;;;;;5116077;28;20048;-77
2022/01/13 03:40:04;;;;;;;28.90;11.63;;;5.80;99.90;;;;;;5116543;28;20078;-75
2022/01/13 03:42:30;;;;;;;32.58;11.50;;;5.50;99.90;;;;;;5114794;28;20044;-75
2022/01/13 03:44:56;;;;;;;33.55;12.30;;;6.00;99.90;;;;;;5098912;28;20051;-76
2022/01/13 03:47:22;;;;;;;41.40;11.95;;;5.90;99.90;;;;;;5098493;28;20079;-74
2022/01/13 03:49:48;;;;;;;30.20;12.05;;;5.80;99.90;;;;;;5115947;28;20040;-75
2022/01/13 03:52:22;;;;;;;32.08;10.65;;;6.40;99.90;;;;;;5116036;28;20127;-75
2022/01/13 03:55:09;;;;;;;31.30;10.27;;;5.70;99.90;;;;;;5098265;28;20048;-77
2022/01/13 03:57:50;;;;;;;24.83;9.77;;;5.60;99.90;;;;;;5116733;28;20047;-76
2022/01/13 04:01:00;;;;;;;34.97;10.32;;;5.90;99.90;;;;;;5115413;28;20433;-75
2022/01/13 04:03:26;;;;;;;36.72;10.75;;;5.70;99.90;;;;;;5093647;28;20536;-77
2022/01/13 04:06:11;;;;;;;30.38;10.57;;;6.10;99.90;;;;;;5115413;28;20044;-76
2022/01/13 04:08:38;;;;;;;30.08;11.20;;;5.60;99.90;;;;;;5114704;28;20396;-75
2022/01/13 04:11:04;;;;;;;29.67;10.27;;;5.80;99.90;;;;;;5122824;27;20440;-76
2022/01/13 04:16:27;;;;;;;27.48;10.43;;;6.10;99.90;;;;;;5118124;27;20043;-77
2022/01/13 04:18:55;;;;;;;27.08;10.00;;;5.80;99.90;;;;;;5101370;27;20368;-77
2022/01/13 04:21:22;;;;;;;26.15;9.77;;;5.70;99.90;;;;;;5117676;27;20045;-77
2022/01/13 04:23:48;;;;;;;31.33;9.18;;;5.70;99.90;;;;;;5135827;27;20061;-74
2022/01/13 04:26:18;;;;;;;27.08;10.10;;;6.70;99.90;;;;;;5117634;27;20065;-75
2022/01/13 04:28:45;;;;;;;33.63;10.80;;;5.60;99.90;;;;;;5117447;27;20085;-76
2022/01/13 04:31:11;;;;;;;30.58;11.27;;;6.10;99.90;;;;;;5100824;27;20054;-73
2022/01/13 04:33:38;;;;;;;31.52;10.95;;;5.80;99.90;;;;;;5100683;27;20344;-76
2022/01/13 04:36:06;;;;;;;37.00;11.50;;;5.50;99.90;;;;;;5100437;27;20459;-75
2022/01/13 04:38:32;;;;;;;32.10;10.77;;;5.70;99.90;;;;;;5100514;27;20399;-76
2022/01/13 04:41:01;;;;;;;45.60;11.27;;;5.90;99.90;;;;;;5117106;27;20070;-77
2022/01/13 04:43:30;;;;;;;39.08;12.55;;;6.20;99.90;;;;;;5116982;27;20062;-77
2022/01/13 04:45:56;;;;;;;38.55;11.75;;;5.70;99.90;;;;;;5100909;27;20058;-76
2022/01/13 04:48:22;;;;;;;41.47;12.05;;;5.70;99.90;;;;;;5116688;27;20047;-76
2022/01/13 04:50:48;;;;;;;35.17;12.30;;;5.60;99.90;;;;;;5117119;27;20126;-75
2022/01/13 04:53:14;;;;;;;32.65;10.40;;;5.50;99.90;;;;;;5117401;27;20391;-76
2022/01/13 04:55:48;;;;;;;36.55;11.65;;;6.30;99.90;;;;;;5117999;27;20051;-77
2022/01/13 04:58:14;;;;;;;26.38;11.30;;;5.60;99.90;;;;;;5118073;27;20061;-76
2022/01/13 05:00:40;;;;;;;42.03;13.18;;;5.70;99.90;;;;;;5117591;27;20047;-75
2022/01/13 05:03:06;;;;;;;43.58;13.02;;;5.40;99.90;;;;;;5135985;27;20075;-77
2022/01/13 05:05:31;;;;;;;30.30;12.10;;;5.70;99.90;;;;;;5100930;27;20129;-77
2022/01/13 05:07:57;;;;;;;37.55;11.52;;;7.40;99.90;;;;;;5135653;27;20055;-76
2022/01/13 05:10:23;;;;;;;38.83;12.68;;;5.50;99.90;;;;;;5134884;27;20122;-77
2022/01/13 05:12:54;;;;;;;40.85;11.70;;;6.20;99.90;;;;;;5116643;27;20386;-75
2022/01/13 05:15:26;;;;;;;39.80;12.30;;;5.70;99.90;;;;;;5100637;27;20129;-78
2022/01/13 05:20:23;;;;;;;40.38;12.93;;;5.70;99.90;;;;;;5134661;27;20086;-77
2022/01/13 05:22:49;;;;;;;41.08;12.68;;;6.20;99.90;;;;;;5135584;27;20456;-74
2022/01/13 05:25:17;;;;;;;44.78;13.55;;;5.80;99.90;;;;;;5116681;27;20383;-75
2022/01/13 05:27:43;;;;;;;37.33;12.18;;;5.50;99.90;;;;;;5134746;27;20451;-76
2022/01/13 05:30:10;;;;;;;39.15;12.35;;;5.60;99.90;;;;;;5134700;27;20043;-75
2022/01/13 05:32:36;;;;;;;46.03;13.10;;;5.40;99.90;;;;;;5116211;27;20062;-76
2022/01/13 05:35:02;;;;;;;34.65;11.82;;;5.70;99.90;;;;;;5116394;27;20039;-76
2022/01/13 05:37:28;;;;;;;34.28;11.95;;;5.50;99.90;;;;;;5116298;27;20387;-77
2022/01/13 05:39:54;;;;;;;32.60;11.50;;;5.60;99.90;;;;;;5099745;28;20100;-74
2022/01/13 05:42:20;;;;;;;39.60;12.60;;;5.70;99.90;;;;;;5116253;28;20395;-75
2022/01/13 05:44:46;;;;;;;44.42;13.85;;;6.60;99.90;;;;;;5134783;28;20035;-76
2022/01/13 05:47:13;;;;;;;35.40;11.55;;;5.70;99.90;;;;;;5099894;28;20047;-78
2022/01/13 05:49:41;;;;;;;48.47;12.38;;;5.80;99.90;;;;;;5116398;28;20096;-76
2022/01/13 05:52:12;;;;;;;37.45;11.63;;;6.00;99.90;;;;;;5099610;28;20054;-76
2022/01/13 05:54:38;;;;;;;40.50;12.30;;;5.50;99.90;;;;;;5116208;28;20514;-77
2022/01/13 05:57:05;;;;;;;36.03;11.38;;;6.40;99.90;;;;;;5116202;28;20040;-76
2022/01/13 05:59:31;;;;;;;39.83;11.75;;;5.40;99.90;;;;;;5120263;27;20043;-77
2022/01/13 06:01:58;;;;;;;39.33;12.35;;;5.40;99.90;;;;;;5120468;27;20054;-77
2022/01/13 06:04:24;;;;;;;50.75;12.75;;;5.40;99.90;;;;;;5139348;27;20053;-77
2022/01/13 06:06:50;;;;;;;46.90;14.95;;;5.50;99.90;;;;;;5103561;27;20386;-76
2022/01/13 06:09:16;;;;;;;46.67;13.07;;;5.80;99.90;;;;;;5120324;27;20147;-76
2022/01/13 06:11:51;;;;;;;37.17;13.30;;;5.50;99.90;;;;;;5137979;27;20090;-76
2022/01/13 06:14:17;;;;;;;51.47;14.52;;;5.80;99.90;;;;;;5120940;27;20062;-77
2022/01/13 06:16:43;;;;;;;43.38;14.35;;;6.40;99.90;;;;;;5139109;27;20039;-77
2022/01/13 06:19:08;;;;;;;50.30;14.35;;;5.60;99.90;;;;;;5120065;27;20071;-76
2022/01/13 06:21:34;;;;;;;38.88;13.05;;;5.80;99.90;;;;;;5102878;27;20475;-78
2022/01/13 06:24:00;;;;;;;40.60;12.70;;;5.90;99.90;;;;;;5138102;27;20047;-76
2022/01/13 06:26:27;;;;;;;34.63;12.88;;;5.40;99.90;;;;;;5119993;27;20043;-78
2022/01/13 06:28:52;;;;;;;33.80;12.75;;;5.50;99.90;;;;;;5138056;27;20046;-75
2022/01/13 06:31:18;;;;;;;41.97;12.70;;;6.20;99.90;;;;;;5138538;27;20126;-75
2022/01/13 06:33:44;;;;;;;35.75;13.27;;;5.30;99.90;;;;;;5119752;27;20101;-77
2022/01/13 06:36:10;;;;;;;39.17;13.15;;;5.60;99.90;;;;;;5103714;27;20126;-77
2022/01/13 06:38:36;;;;;;;56.65;13.93;;;5.70;99.90;;;;;;5137959;27;20503;-75
2022/01/13 06:41:02;;;;;;;36.60;12.73;;;5.70;99.90;;;;;;5103441;27;20112;-75
2022/01/13 06:43:28;;;;;;;40.78;14.07;;;5.80;99.90;;;;;;5119199;27;20471;-76
2022/01/13 06:45:54;;;;;;;54.55;13.85;;;5.60;99.90;;;;;;5137938;27;20403;-75
2022/01/13 06:48:19;;;;;;;36.40;13.00;;;5.50;99.90;;;;;;5137819;27;20039;-73
2022/01/13 06:50:45;;;;;;;42.05;12.75;;;5.30;99.90;;;;;;5102555;27;20150;-74
2022/01/13 06:53:11;;;;;;;41.15;13.30;;;5.60;99.90;;;;;;5138467;27;20084;-74
2022/01/13 06:55:37;;;;;;;51.55;14.10;;;6.50;99.90;;;;;;5119822;27;20055;-76
2022/01/13 06:58:03;;;;;;;41.22;13.93;;;5.80;99.90;;;;;;5085669;27;20383;-74
2022/01/13 07:00:28;;;;;;;41.25;12.68;;;6.30;99.90;;;;;;5119946;27;20370;-75
2022/01/13 07:02:58;;;;;;;34.97;12.43;;;5.50;99.90;;;;;;5138251;27;20122;-75
2022/01/13 07:05:24;;;;;;;39.90;14.38;;;5.70;99.90;;;;;;5086031;27;20047;-76
2022/01/13 07:07:50;;;;;;;44.42;13.90;;;5.70;99.90;;;;;;5119037;27;20470;-75
2022/01/13 07:10:15;;;;;;;54.60;15.30;;;5.80;99.90;;;;;;5119314;27;20036;-76
2022/01/13 07:12:42;;;;;;;47.75;14.40;;;5.50;99.90;;;;;;5118489;27;20486;-76
2022/01/13 07:15:09;;;;;;;49.70;15.00;;;6.00;99.90;;;;;;5137969;27;20401;-75
2022/01/13 07:17:35;;;;;;;35.55;13.65;;;5.70;99.90;;;;;;5118999;27;20063;-76
2022/01/13 07:20:02;;;;;;;41.45;15.65;;;5.70;99.90;;;;;;5138022;27;20333;-76
2022/01/13 07:22:28;;;;;;;41.10;13.38;;;5.80;99.90;;;;;;5137340;27;20086;-75
2022/01/13 07:24:54;;;;;;;40.42;13.02;;;5.80;99.90;;;;;;5136799;27;20451;-75
2022/01/13 07:27:20;;;;;;;46.40;14.48;;;5.90;99.90;;;;;;5137583;27;20130;-75
2022/01/13 07:29:45;;;;;;;38.75;14.10;;;5.70;99.90;;;;;;5137424;27;20036;-74
2022/01/13 07:32:12;;;;;;;51.40;15.95;;;6.10;99.90;;;;;;5118634;27;20085;-76
2022/01/13 07:34:38;;;;;;;42.25;14.52;;;6.10;99.90;;;;;;5118560;27;20051;-76
2022/01/13 07:37:04;;;;;;;56.22;16.08;;;5.80;99.90;;;;;;5136747;27;20043;-76
2022/01/13 07:39:31;;;;;;;39.92;14.85;;;5.80;99.90;;;;;;5101633;27;20055;-75
2022/01/13 07:41:57;;;;;;;42.72;13.77;;;5.90;99.90;;;;;;5084763;27;20130;-75
2022/01/13 07:44:22;;;;;;;42.22;14.30;;;6.10;99.90;;;;;;5118783;27;20131;-75
2022/01/13 07:46:48;;;;;;;38.63;12.90;;;6.40;99.90;;;;;;5102674;27;20054;-77
2022/01/13 07:49:14;;;;;;;37.75;13.32;;;6.10;99.90;;;;;;5118385;27;20446;-75
2022/01/13 07:51:40;;;;;;;48.05;14.73;;;5.90;99.90;;;;;;5136387;27;20050;-76
2022/01/13 07:54:06;;;;;;;50.67;14.98;;;6.10;99.90;;;;;;5136092;27;20056;-75
2022/01/13 07:56:31;;;;;;;49.05;15.15;;;5.90;99.90;;;;;;5136426;27;20046;-75
2022/01/13 07:58:57;;;;;;;49.22;15.00;;;6.10;99.90;;;;;;5136277;27;20054;-76
2022/01/13 08:01:23;;;;;;;46.20;17.65;;;6.50;99.90;;;;;;5118241;27;20046;-77
2022/01/13 08:03:49;;;;;;;53.22;15.32;;;5.80;99.90;;;;;;5117904;27;20046;-75
2022/01/13 08:06:15;;;;;;;47.83;14.43;;;6.20;99.90;;;;;;5118080;27;20050;-76
2022/01/13 08:08:41;;;;;;;41.22;14.07;;;5.90;99.90;;;;;;5100869;27;20047;-74
2022/01/13 08:11:08;;;;;;;39.50;14.10;;;6.40;99.90;;;;;;5084172;27;20530;-76
2022/01/13 08:13:36;;;;;;;40.13;13.77;;;6.20;99.90;;;;;;5136167;27;20051;-77
2022/01/13 08:16:07;;;;;;;41.10;13.45;;;6.00;99.90;;;;;;5118591;27;20043;-75
2022/01/13 08:21:18;;;;;;;36.28;12.27;;;5.90;99.90;;;;;;5117683;28;20047;-73
2022/01/13 08:23:44;;;;;;;40.42;13.52;;;5.90;99.90;;;;;;5136827;27;20484;-76
2022/01/13 08:26:09;;;;;;;31.98;12.85;;;6.10;99.90;;;;;;5117777;27;20536;-76
2022/01/13 08:28:36;;;;;;;50.00;14.88;;;6.20;99.90;;;;;;5100979;27;20065;-76
2022/01/13 08:31:03;;;;;;;47.08;15.38;;;6.00;99.90;;;;;;5117466;27;20050;-76
2022/01/13 08:33:30;;;;;;;39.70;13.25;;;5.70;99.90;;;;;;5117519;27;20087;-76
2022/01/13 08:35:56;;;;;;;42.05;13.63;;;6.20;99.90;;;;;;5100302;27;20059;-78
2022/01/13 08:38:24;;;;;;;37.60;13.20;;;6.30;99.90;;;;;;5117342;27;20047;-76
2022/01/13 08:40:59;;;;;;;53.35;15.82;;;6.00;99.90;;;;;;5117296;27;20122;-76
2022/01/13 08:43:26;;;;;;;38.92;12.80;;;6.20;99.90;;;;;;5118350;27;20103;-76
2022/01/13 08:45:53;;;;;;;36.05;12.23;;;6.70;99.90;;;;;;5117830;27;20043;-74
2022/01/13 08:48:20;;;;;;;34.35;12.20;;;5.90;99.90;;;;;;5135563;27;20047;-75
2022/01/13 08:50:47;;;;;;;38.80;12.82;;;6.60;99.90;;;;;;5136271;27;20035;-75
2022/01/13 08:53:15;;;;;;;37.45;13.38;;;6.30;99.90;;;;;;5118079;27;20091;-74
2022/01/13 08:55:41;;;;;;;48.70;13.88;;;5.90;99.90;;;;;;5135348;27;20080;-75
2022/01/13 08:58:07;;;;;;;41.58;13.18;;;6.40;99.90;;;;;;5117498;27;20079;-74
2022/01/13 09:00:36;;;;;;;46.40;14.00;;;6.70;99.90;;;;;;5116942;27;20039;-74
2022/01/13 09:03:06;;;;;;;38.83;11.88;;;6.10;99.90;;;;;;5135250;27;20440;-73
2022/01/13 09:05:32;;;;;;;44.55;12.80;;;6.20;99.90;;;;;;5135234;27;20509;-74
2022/01/13 09:07:58;;;;;;;43.85;12.73;;;5.80;99.90;;;;;;5135735;27;20055;-73
2022/01/13 09:10:24;;;;;;;34.83;12.43;;;6.10;99.90;;;;;;5117469;27;20031;-75
2022/01/13 09:12:49;;;;;;;35.95;13.05;;;6.10;99.90;;;;;;5099337;27;20051;-76
2022/01/13 09:15:29;;;;;;;45.95;14.25;;;5.90;99.90;;;;;;5116675;27;20051;-74
2022/01/13 09:17:55;;;;;;;41.40;14.18;;;6.00;99.90;;;;;;5102872;27;20043;-75
2022/01/13 09:20:21;;;;;;;40.10;14.18;;;6.40;99.90;;;;;;5099735;28;20091;-75
2022/01/13 09:22:47;;;;;;;36.17;14.85;;;5.80;99.90;;;;;;5135573;27;20535;-76
2022/01/13 09:25:13;;;;;;;36.15;13.75;;;6.10;99.90;;;;;;5099879;27;20075;-75
2022/01/13 09:27:40;;;;;;;42.00;14.20;;;6.00;99.90;;;;;;5099855;27;20039;-74
2022/01/13 09:30:13;;;;;;;35.58;13.63;;;6.30;99.90;;;;;;5099487;27;20043;-77
2022/01/13 09:32:38;;;;;;;38.85;13.27;;;6.10;99.90;;;;;;5117364;27;20047;-74
2022/01/13 09:35:07;;;;;;;40.65;14.63;;;6.20;99.90;;;;;;5116943;27;20429;-74
2022/01/13 09:37:33;;;;;;;41.70;14.55;;;6.10;99.90;;;;;;5135046;27;20119;-74
2022/01/13 09:39:59;;;;;;;42.50;15.02;;;6.10;99.90;;;;;;5116134;28;20043;-76
2022/01/13 09:42:26;;;;;;;40.45;13.38;;;6.10;99.90;;;;;;5134680;27;20050;-76
2022/01/13 09:44:54;;;;;;;35.08;13.45;;;6.10;99.90;;;;;;5117449;28;20075;-76
2022/01/13 09:47:20;;;;;;;35.80;14.02;;;6.20;99.90;;;;;;5116407;28;20079;-75
2022/01/13 09:49:47;;;;;;;45.28;15.88;;;6.40;99.90;;;;;;5116379;28;20050;-77
2022/01/13 09:52:13;;;;;;;40.20;14.73;;;6.40;99.90;;;;;;5116478;28;20070;-76
2022/01/13 09:54:39;;;;;;;39.28;15.48;;;6.50;99.90;;;;;;5134594;28;20047;-75
2022/01/13 09:57:04;;;;;;;45.00;14.82;;;6.30;99.90;;;;;;5134522;28;20200;-76
2022/01/13 09:59:30;;;;;;;37.85;13.82;;;6.30;99.90;;;;;;5116283;28;20046;-76
2022/01/13 10:01:56;;;;;;;42.92;15.25;;;6.30;99.90;;;;;;5134501;28;20047;-74
2022/01/13 10:04:21;;;;;;;41.85;14.85;;;6.40;99.90;;;;;;5116144;28;20043;-76
2022/01/13 10:06:48;;;;;;;40.80;16.45;;;6.40;99.90;;;;;;5116206;28;20134;-74
2022/01/13 10:09:15;;;;;;;45.83;16.50;;;6.00;99.90;;;;;;5099369;28;20047;-75
2022/01/13 10:11:54;;;;;;;35.85;14.10;;;6.50;99.90;;;;;;5134049;28;20159;-75
2022/01/13 10:16:54;;;;;;;38.42;14.60;;;7.20;99.90;;;;;;5117072;28;20051;-76
2022/01/13 10:19:28;;;;;;;35.10;14.32;;;6.20;99.90;;;;;;5134253;28;20078;-78
2022/01/13 10:22:04;;;;;;;42.15;15.60;;;6.30;99.90;;;;;;5116142;28;20138;-77
2022/01/13 10:24:33;;;;;;;35.05;13.63;;;6.40;99.90;;;;;;5116040;28;20051;-76
2022/01/13 10:27:05;;;;;;;32.40;13.05;;;6.60;99.90;;;;;;5134246;28;20039;-76
2022/01/13 10:29:37;;;;;;;33.97;13.73;;;6.40;99.90;;;;;;5134221;28;20065;-76
2022/01/13 10:32:03;;;;;;;32.22;13.63;;;6.30;99.90;;;;;;5115661;28;20636;-78
2022/01/13 10:34:30;;;;;;;34.50;13.85;;;6.20;99.90;;;;;;5133564;28;20050;-75
2022/01/13 10:37:15;;;;;;;34.72;13.82;;;6.50;99.90;;;;;;5133654;28;20116;-77
2022/01/13 10:39:49;;;;;;;32.22;14.13;;;6.20;99.90;;;;;;5133794;28;20047;-76
2022/01/13 10:45:09;;;;;;;32.97;13.82;;;6.50;99.90;;;;;;5116107;27;20115;-79
2022/01/13 10:47:35;;;;;;;36.90;13.55;;;6.40;99.90;;;;;;5085769;27;20138;-77
2022/01/13 10:50:03;;;;;;;30.40;14.10;;;7.00;99.90;;;;;;5119177;27;20051;-78
2022/01/13 10:52:29;;;;;;;33.60;14.13;;;6.60;99.90;;;;;;5119184;27;20376;-75
2022/01/13 10:55:07;;;;;;;30.50;13.90;;;6.40;99.90;;;;;;5118128;27;20043;-81
2022/01/13 10:57:34;;;;;;;34.60;13.77;;;6.60;99.90;;;;;;5136344;27;20059;-74
2022/01/13 11:00:00;;;;;;;33.13;14.95;;;6.60;99.90;;;;;;5118304;27;20073;-75
2022/01/13 11:02:26;;;;;;;35.65;14.50;;;6.50;99.90;;;;;;5137140;27;20046;-82
2022/01/13 11:04:53;;;;;;;30.23;13.73;;;6.30;99.90;;;;;;5118912;27;20046;-82
2022/01/13 11:07:26;;;;;;;32.10;13.65;;;6.70;99.90;;;;;;5102313;27;20043;-78
2022/01/13 11:10:01;;;;;;;33.85;14.35;;;6.60;99.90;;;;;;5119235;27;20336;-77
2022/01/13 11:12:39;;;;;;;37.30;14.40;;;6.60;99.90;;;;;;5118010;27;20169;-80
2022/01/13 11:15:08;;;;;;;37.63;13.55;;;6.30;99.90;;;;;;5102317;27;20055;-78
2022/01/13 11:17:38;;;;;;;37.80;14.18;;;6.40;99.90;;;;;;5136961;27;20424;-79
2022/01/13 11:20:06;;;;;;;32.40;13.75;;;7.00;99.90;;;;;;5136990;27;20554;-77
2022/01/13 11:22:35;;;;;;;35.03;13.20;;;6.30;99.90;;;;;;5118375;27;20402;-76
2022/01/13 11:25:10;;;;;;;35.13;13.55;;;7.00;99.90;;;;;;5136536;27;20043;-76
2022/01/13 11:27:37;;;;;;;31.92;13.05;;;6.30;99.90;;;;;;5101257;27;20074;-75
2022/01/13 11:30:07;;;;;;;33.13;14.65;;;7.20;99.90;;;;;;5118323;27;20061;-77
2022/01/13 11:32:32;;;;;;;34.55;14.70;;;6.50;99.90;;;;;;5118628;27;20158;-73
2022/01/13 11:34:59;;;;;;;37.83;13.82;;;6.50;99.90;;;;;;5135926;27;20483;-75
2022/01/13 11:37:29;;;;;;;30.45;13.35;;;6.80;99.90;;;;;;5101285;27;20069;-76
2022/01/13 11:39:56;;;;;;;37.85;14.40;;;6.60;99.90;;;;;;5117658;27;20035;-77
2022/01/13 11:42:23;;;;;;;31.67;14.68;;;6.60;99.90;;;;;;5118366;27;20135;-76
2022/01/13 11:45:14;;;;;;;33.65;15.68;;;7.00;99.90;;;;;;5135702;27;20439;-76
2022/01/13 11:47:40;;;;;;;33.58;15.18;;;6.30;99.90;;;;;;5118530;27;20051;-77
2022/01/13 11:50:22;;;;;;;34.05;14.25;;;6.60;99.90;;;;;;5136002;27;20070;-73
2022/01/13 11:52:53;;;;;;;31.00;14.10;;;6.30;99.90;;;;;;5118621;27;20040;-75
2022/01/13 11:55:41;;;;;;;35.88;14.02;;;6.60;99.90;;;;;;5117324;27;20096;-76
2022/01/13 11:58:21;;;;;;;38.90;15.80;;;6.80;99.90;;;;;;5135870;27;20057;-75
2022/01/13 12:00:50;;;;;;;31.02;13.52;;;7.00;99.90;;;;;;5136510;27;20092;-73
2022/01/13 12:03:32;;;;;;;31.33;13.25;;;6.50;99.90;;;;;;5118443;27;20370;-80
2022/01/13 12:06:00;;;;;;;33.28;14.43;;;6.80;99.90;;;;;;5135855;27;20463;-76
2022/01/13 12:08:48;;;;;;;32.60;13.93;;;6.90;99.90;;;;;;5118114;27;20047;-75
2022/01/13 12:11:36;;;;;;;33.85;13.45;;;6.80;99.90;;;;;;5117272;27;20108;-78
2022/01/13 12:14:02;;;;;;;32.70;13.93;;;6.70;99.90;;;;;;5116944;27;20055;-75
2022/01/13 12:16:54;;;;;;;33.17;13.80;;;6.80;99.90;;;;;;5135528;27;20043;-75
2022/01/13 12:19:51;;;;;;;28.83;12.85;;;6.70;99.90;;;;;;5116910;27;20511;-75
2022/01/13 12:22:33;;;;;;;32.10;16.33;;;6.60;99.90;;;;;;5078345;27;20066;-79
2022/01/13 12:25:01;;;;;;;30.55;13.23;;;6.70;99.90;;;;;;5117499;27;20062;-76
2022/01/13 12:27:39;;;;;;;34.22;13.73;;;6.90;99.90;;;;;;5100040;27;20062;-75
2022/01/13 12:30:09;;;;;;;36.30;14.82;;;6.90;99.90;;;;;;5116799;27;20406;-76
2022/01/13 12:32:48;;;;;;;34.25;13.82;;;7.00;99.90;;;;;;5117730;27;20511;-74
2022/01/13 12:35:22;;;;;;;31.23;14.20;;;6.60;99.90;;;;;;5117637;27;20047;-76
2022/01/13 12:38:15;;;;;;;31.23;13.48;;;6.70;99.90;;;;;;5117892;27;20133;-74
2022/01/13 12:40:54;;;;;;;31.38;13.88;;;6.70;99.90;;;;;;5135605;27;20035;-76
2022/01/13 12:46:10;;;;;;;27.70;12.52;;;7.00;99.90;;;;;;5117190;27;20051;-73
2022/01/13 12:48:39;;;;;;;31.13;13.95;;;6.80;99.90;;;;;;5117830;27;20099;-74
2022/01/13 12:51:06;;;;;;;31.98;13.55;;;6.90;99.90;;;;;;5100646;27;20043;-77
2022/01/13 12:53:35;;;;;;;30.38;12.57;;;6.80;99.90;;;;;;5135478;27;20051;-76
2022/01/13 12:56:14;;;;;;;31.85;13.55;;;7.40;99.90;;;;;;5117138;27;20520;-74
2022/01/13 12:58:47;;;;;;;33.92;14.18;;;6.90;99.90;;;;;;5135941;27;20055;-70
2022/01/13 13:01:14;;;;;;;31.43;13.77;;;7.10;99.90;;;;;;5135399;27;20039;-75
2022/01/13 13:03:41;;;;;;;30.90;13.55;;;6.80;99.90;;;;;;5117472;27;20118;-76
2022/01/13 13:06:13;;;;;;;31.55;13.68;;;7.10;99.90;;;;;;5116842;27;20126;-74
2022/01/13 13:08:43;;;;;;;31.20;14.25;;;7.20;99.90;;;;;;5135486;27;20379;-75
2022/01/13 13:11:09;;;;;;;26.92;13.57;;;6.90;99.90;;;;;;5116529;27;20051;-75
2022/01/13 13:13:46;;;;;;;25.45;13.18;;;6.90;99.90;;;;;;5135105;27;20043;-75